createdAt,value
2023-03-26T00:00:58.212Z,18.80
2023-03-26T00:03:39.083Z,20.13
2023-03-26T00:06:23.108Z,19.83
2023-03-26T00:09:00.736Z,19.90
2023-03-26T00:11:38.905Z,20.53
2023-03-26T00:14:19.807Z,20.60
2023-03-26T00:16:59.993Z,19.60
2023-03-26T00:19:36.403Z,21.03
2023-03-26T00:22:15.298Z,21.33
2023-03-26T00:24:52.721Z,22.77
2023-03-26T00:27:29.234Z,22.33
2023-03-26T00:30:05.532Z,23.47
2023-03-26T00:32:45.521Z,23.10
2023-03-26T00:35:31.367Z,22.90
2023-03-26T00:38:08.727Z,22.60
2023-03-26T00:40:45.620Z,22.40
2023-03-26T00:43:22.844Z,22.80
2023-03-26T00:46:00.251Z,22.97
2023-03-26T00:48:45.460Z,22.40
2023-03-26T00:51:29.368Z,21.30
2023-03-26T00:54:09.447Z,23.17
2023-03-26T00:56:45.798Z,23.47
2023-03-26T00:59:25.666Z,23.67
2023-03-26T01:02:02.706Z,23.13
2023-03-26T01:04:43.583Z,21.67
2023-03-26T01:07:23.501Z,22.80
2023-03-26T01:10:00.325Z,22.43
2023-03-26T01:12:38.372Z,21.67
2023-03-26T01:15:16.747Z,22.43
2023-03-26T01:17:53.803Z,22.30
2023-03-26T01:20:33.604Z,23.47
2023-03-26T01:23:13.959Z,24.63
2023-03-26T01:26:01.706Z,23.80
2023-03-26T01:28:42.697Z,24.40
2023-03-26T01:31:26.915Z,23.57
2023-03-26T01:34:11.200Z,25.77
2023-03-26T01:36:57.563Z,24.60
2023-03-26T01:39:40.647Z,25.63
2023-03-26T01:42:27.275Z,26.43
2023-03-26T01:45:09.721Z,26.97
2023-03-26T01:47:47.609Z,26.53
2023-03-26T01:50:23.758Z,27.27
2023-03-26T01:53:02.320Z,27.43
2023-03-26T01:55:51.747Z,27.37
2023-03-26T01:58:42.298Z,26.63
2023-03-26T02:01:33.744Z,24.70
2023-03-26T02:04:21.747Z,30.10
2023-03-26T02:07:15.426Z,29.87
2023-03-26T02:09:54.180Z,29.37
2023-03-26T02:12:33.101Z,29.20
2023-03-26T02:15:13.719Z,33.83
2023-03-26T02:17:58.128Z,32.60
2023-03-26T02:20:39.448Z,35.17
2023-03-26T02:23:20.071Z,34.37
2023-03-26T02:25:58.318Z,34.97
2023-03-26T02:28:38.008Z,36.27
2023-03-26T02:31:20.078Z,32.37
2023-03-26T02:33:59.831Z,36.43
2023-03-26T02:36:39.073Z,36.50
2023-03-26T02:39:20.053Z,37.20
2023-03-26T02:42:04.810Z,35.70
2023-03-26T02:44:47.365Z,36.73
2023-03-26T02:47:35.495Z,35.77
2023-03-26T02:50:46.874Z,35.97
2023-03-26T02:53:44.563Z,35.83
2023-03-26T02:56:42.680Z,35.23
2023-03-26T02:59:48.395Z,32.63
2023-03-26T03:03:11.314Z,33.17
2023-03-26T03:06:12.169Z,32.23
2023-03-26T03:08:57.736Z,29.97
2023-03-26T03:11:44.189Z,29.17
2023-03-26T03:14:27.884Z,28.20
2023-03-26T03:17:09.563Z,24.67
2023-03-26T03:19:49.770Z,23.00
2023-03-26T03:22:32.416Z,20.60
2023-03-26T03:25:15.724Z,21.50
2023-03-26T03:28:00.098Z,20.27
2023-03-26T03:30:46.382Z,20.00
2023-03-26T03:33:37.906Z,19.13
2023-03-26T03:36:23.466Z,16.90
2023-03-26T03:39:12.407Z,18.10
2023-03-26T03:41:53.193Z,16.30
2023-03-26T03:44:29.521Z,15.10
2023-03-26T03:47:09.048Z,15.67
2023-03-26T03:49:45.416Z,15.83
2023-03-26T03:52:27.442Z,15.50
2023-03-26T03:55:09.009Z,15.47
2023-03-26T03:58:06.433Z,16.03
2023-03-26T04:00:43.915Z,14.97
2023-03-26T04:03:47.708Z,15.60
2023-03-26T04:06:28.273Z,15.03
2023-03-26T04:09:08.113Z,14.80
2023-03-26T04:11:48.591Z,15.57
2023-03-26T04:14:46.714Z,14.97
2023-03-26T04:17:26.154Z,15.20
2023-03-26T04:20:12.376Z,14.67
2023-03-26T04:22:55.209Z,14.20
2023-03-26T04:25:43.141Z,13.97
2023-03-26T04:28:46.709Z,13.93
2023-03-26T04:31:45.139Z,14.37
2023-03-26T04:34:29.437Z,13.53
2023-03-26T04:37:20.475Z,14.33
2023-03-26T04:40:12.121Z,13.63
2023-03-26T04:43:04.616Z,12.67
2023-03-26T04:46:05.077Z,14.07
2023-03-26T04:48:48.576Z,13.53
2023-03-26T04:51:28.284Z,14.20
2023-03-26T04:54:09.513Z,13.27
2023-03-26T04:57:05.425Z,16.03
2023-03-26T05:00:06.041Z,20.90
2023-03-26T05:03:02.564Z,20.30
2023-03-26T05:05:48.690Z,18.23
2023-03-26T05:08:27.527Z,15.73
2023-03-26T05:11:17.004Z,15.13
2023-03-26T05:14:00.352Z,16.30
2023-03-26T05:16:43.141Z,20.27
2023-03-26T05:19:23.882Z,18.23
2023-03-26T05:22:06.503Z,17.40
2023-03-26T05:24:54.695Z,18.57
2023-03-26T05:27:40.330Z,19.40
2023-03-26T05:30:20.458Z,20.17
2023-03-26T05:33:09.061Z,20.90
2023-03-26T05:36:20.117Z,17.53
2023-03-26T05:39:09.792Z,19.20
2023-03-26T05:42:10.393Z,17.83
2023-03-26T05:45:21.067Z,20.30
2023-03-26T05:48:01.343Z,19.63
2023-03-26T05:50:47.848Z,21.57
2023-03-26T05:53:25.344Z,20.10
2023-03-26T05:56:50.340Z,20.30
2023-03-26T05:59:48.414Z,20.77
2023-03-26T06:02:33.139Z,21.03
2023-03-26T06:05:51.323Z,20.97
2023-03-26T06:09:01.046Z,21.13
2023-03-26T06:11:52.888Z,20.27
2023-03-26T06:14:51.146Z,19.30
2023-03-26T06:17:36.190Z,21.53
2023-03-26T06:20:23.172Z,20.67
2023-03-26T06:23:15.451Z,20.83
2023-03-26T06:26:17.522Z,20.43
2023-03-26T06:29:16.316Z,20.37
2023-03-26T06:32:22.415Z,20.30
2023-03-26T06:35:15.104Z,18.00
2023-03-26T06:37:56.920Z,14.43
2023-03-26T06:40:42.951Z,13.73
2023-03-26T06:43:54.378Z,14.00
2023-03-26T06:47:00.454Z,13.17
2023-03-26T06:49:58.994Z,12.80
2023-03-26T06:53:38.837Z,12.50
2023-03-26T06:56:41.069Z,12.20
2023-03-26T06:59:35.875Z,12.50
2023-03-26T07:02:45.613Z,12.50
2023-03-26T07:05:44.932Z,12.33
2023-03-26T07:08:49.969Z,11.27
2023-03-26T07:12:08.727Z,10.83
2023-03-26T07:15:03.737Z,11.30
2023-03-26T07:18:19.613Z,11.37
2023-03-26T07:21:18.645Z,11.53
2023-03-26T07:24:01.219Z,12.10
2023-03-26T07:27:21.434Z,11.03
2023-03-26T07:30:10.452Z,11.80
2023-03-26T07:33:29.175Z,12.10
2023-03-26T07:36:43.821Z,11.20
2023-03-26T07:39:52.633Z,11.50
2023-03-26T07:43:16.945Z,11.30
2023-03-26T07:46:19.304Z,10.80
2023-03-26T07:49:02.052Z,10.97
2023-03-26T07:52:03.113Z,10.90
2023-03-26T07:55:05.374Z,10.93
2023-03-26T07:58:27.518Z,10.37
2023-03-26T08:01:52.598Z,11.43
2023-03-26T08:05:21.900Z,11.10
2023-03-26T08:08:18.228Z,10.97
2023-03-26T08:11:28.163Z,11.67
2023-03-26T08:14:55.054Z,11.47
2023-03-26T08:17:43.328Z,11.50
2023-03-26T08:20:37.093Z,11.63
2023-03-26T08:23:30.652Z,11.47
2023-03-26T08:26:38.535Z,11.83
2023-03-26T08:29:37.240Z,11.27
2023-03-26T08:32:39.920Z,10.67
2023-03-26T08:35:23.373Z,11.13
2023-03-26T08:41:27.674Z,10.10
2023-03-26T08:44:57.861Z,10.30
2023-03-26T08:48:19.127Z,10.27
2023-03-26T08:51:22.705Z,10.50
2023-03-26T08:54:40.577Z,10.43
2023-03-26T08:57:55.335Z,9.57
2023-03-26T09:01:21.867Z,10.43
2023-03-26T09:04:35.030Z,11.57
2023-03-26T09:07:59.975Z,12.40
2023-03-26T09:11:24.007Z,13.97
2023-03-26T09:14:44.413Z,14.03
2023-03-26T09:18:08.458Z,14.77
2023-03-26T09:21:24.297Z,14.23
2023-03-26T09:24:38.904Z,14.67
2023-03-26T09:27:41.484Z,14.40
2023-03-26T09:30:59.447Z,12.70
2023-03-26T09:34:04.827Z,14.87
2023-03-26T09:37:09.837Z,14.87
2023-03-26T09:40:06.741Z,14.73
2023-03-26T09:42:59.041Z,15.00
2023-03-26T09:46:09.768Z,15.13
2023-03-26T09:49:10.237Z,16.60
2023-03-26T09:52:14.216Z,16.03
2023-03-26T09:55:37.754Z,16.33
2023-03-26T09:59:14.865Z,16.00
2023-03-26T10:02:08.307Z,17.40
2023-03-26T10:05:29.946Z,16.50
2023-03-26T10:08:26.613Z,17.70
2023-03-26T10:11:20.249Z,16.23
2023-03-26T10:14:24.988Z,17.77
2023-03-26T10:17:22.521Z,16.00
2023-03-26T10:20:31.171Z,15.13
2023-03-26T10:23:27.926Z,15.50
2023-03-26T10:30:26.836Z,13.27
2023-03-26T10:33:27.959Z,14.53
2023-03-26T10:36:35.437Z,14.40
2023-03-26T10:39:40.656Z,13.77
2023-03-26T10:42:54.483Z,13.90
2023-03-26T10:46:28.828Z,13.80
2023-03-26T10:49:54.348Z,13.37
2023-03-26T10:52:42.416Z,12.83
2023-03-26T10:55:27.268Z,15.47
2023-03-26T10:58:12.788Z,14.37
2023-03-26T11:01:17.705Z,13.80
2023-03-26T11:04:02.769Z,12.60
2023-03-26T11:06:46.246Z,13.10
2023-03-26T11:09:34.689Z,12.70
2023-03-26T11:12:26.553Z,13.50
2023-03-26T11:15:16.382Z,12.53
2023-03-26T11:18:04.672Z,12.13
2023-03-26T11:20:47.317Z,11.47
2023-03-26T11:23:48.232Z,11.83
2023-03-26T11:26:54.716Z,12.30
2023-03-26T11:29:49.712Z,12.13
2023-03-26T11:32:53.783Z,11.63
2023-03-26T11:36:25.552Z,12.07
2023-03-26T11:40:13.122Z,11.13
2023-03-26T11:42:59.097Z,12.63
2023-03-26T11:49:45.685Z,12.37
2023-03-26T11:52:39.825Z,12.60
2023-03-26T11:55:36.946Z,13.00
2023-03-26T11:58:29.173Z,13.47
2023-03-26T12:01:13.853Z,14.30
2023-03-26T12:04:09.212Z,14.00
2023-03-26T12:07:04.325Z,14.80
2023-03-26T12:09:54.623Z,14.80
2023-03-26T12:12:58.266Z,14.70
2023-03-26T12:16:02.493Z,15.93
2023-03-26T12:18:56.998Z,15.27
2023-03-26T12:21:57.539Z,15.70
2023-03-26T12:24:45.609Z,16.23
2023-03-26T12:27:36.442Z,15.47
2023-03-26T12:30:32.672Z,16.80
2023-03-26T12:33:19.668Z,15.87
2023-03-26T12:40:14.993Z,15.77
2023-03-26T12:44:49.857Z,16.23
2023-03-26T12:47:58.244Z,16.77
2023-03-26T12:49:34.853Z,16.90
2023-03-26T12:52:49.891Z,17.00
2023-03-26T12:56:03.584Z,16.53
2023-03-26T12:59:10.450Z,17.23
2023-03-26T13:02:09.043Z,17.00
2023-03-26T13:05:16.268Z,16.60
2023-03-26T13:08:16.975Z,17.70
2023-03-26T13:11:07.472Z,17.23
2023-03-26T13:14:27.340Z,19.53
2023-03-26T13:17:20.007Z,19.07
2023-03-26T13:20:14.161Z,19.30
2023-03-26T13:23:02.745Z,19.07
2023-03-26T13:25:52.985Z,19.70
2023-03-26T13:29:15.201Z,19.53
2023-03-26T13:32:26.259Z,22.33
2023-03-26T13:35:23.610Z,21.43
2023-03-26T13:38:11.285Z,21.20
2023-03-26T13:41:02.206Z,21.93
2023-03-26T13:44:04.650Z,22.07
2023-03-26T13:46:55.855Z,21.77
2023-03-26T13:49:42.603Z,21.57
2023-03-26T13:52:38.770Z,22.10
2023-03-26T13:55:31.270Z,22.23
2023-03-26T13:58:19.403Z,22.13
2023-03-26T14:01:07.993Z,22.70
2023-03-26T14:04:11.271Z,23.57
2023-03-26T14:07:09.627Z,23.00
2023-03-26T14:09:53.301Z,23.50
2023-03-26T14:12:54.143Z,23.50
2023-03-26T14:15:46.967Z,24.23
2023-03-26T14:18:42.634Z,24.10
2023-03-26T14:21:45.978Z,24.37
2023-03-26T14:25:21.597Z,23.73
2023-03-26T14:28:26.397Z,24.63
2023-03-26T14:31:36.235Z,23.80
2023-03-26T14:34:38.061Z,25.20
2023-03-26T14:37:44.940Z,25.00
2023-03-26T14:40:58.322Z,23.77
2023-03-26T14:44:12.423Z,24.63
2023-03-26T14:47:14.478Z,25.37
2023-03-26T14:50:40.477Z,26.60
2023-03-26T14:53:32.571Z,25.43
2023-03-26T14:57:01.824Z,25.33
2023-03-26T15:00:19.883Z,25.50
2023-03-26T15:03:50.764Z,24.93
2023-03-26T15:10:36.479Z,25.40
2023-03-26T15:13:46.412Z,24.43
2023-03-26T15:17:10.170Z,23.37
2023-03-26T15:20:25.314Z,22.03
2023-03-26T15:23:36.821Z,20.87
2023-03-26T15:27:08.084Z,23.00
2023-03-26T15:30:17.340Z,22.10
2023-03-26T15:33:57.684Z,21.77
2023-03-26T15:37:33.563Z,20.33
2023-03-26T15:40:36.915Z,19.00
2023-03-26T15:43:18.564Z,19.90
2023-03-26T15:46:13.629Z,18.90
2023-03-26T15:49:11.693Z,16.47
2023-03-26T15:52:15.413Z,15.77
2023-03-26T15:55:01.079Z,14.30
2023-03-26T15:57:50.168Z,14.67
2023-03-26T16:00:42.508Z,12.80
2023-03-26T16:03:50.819Z,13.37
2023-03-26T16:06:44.062Z,12.93
2023-03-26T16:09:52.817Z,14.07
2023-03-26T16:12:44.532Z,14.50
2023-03-26T16:15:41.214Z,14.93
2023-03-26T16:18:39.982Z,15.07
2023-03-26T16:21:50.637Z,14.33
2023-03-26T16:24:44.161Z,15.00
2023-03-26T16:27:47.432Z,16.03
2023-03-26T16:30:40.403Z,15.57
2023-03-26T16:33:23.225Z,15.90
2023-03-26T16:36:36.552Z,15.60
2023-03-26T16:39:51.127Z,16.37
2023-03-26T16:42:46.576Z,15.37
2023-03-26T16:45:36.116Z,15.43
2023-03-26T16:48:28.482Z,16.73
2023-03-26T16:51:11.627Z,15.23
2023-03-26T16:53:57.929Z,16.63
2023-03-26T16:56:50.167Z,16.40
2023-03-26T17:00:07.872Z,16.33
2023-03-26T17:03:02.959Z,16.43
2023-03-26T17:05:54.528Z,15.77
2023-03-26T17:08:45.904Z,16.67
2023-03-26T17:11:36.933Z,16.53
2023-03-26T17:14:31.578Z,15.20
2023-03-26T17:17:46.742Z,15.07
2023-03-26T17:20:38.951Z,16.23
2023-03-26T17:23:45.832Z,15.23
2023-03-26T17:26:51.099Z,15.60
2023-03-26T17:29:49.879Z,14.60
2023-03-26T17:32:31.572Z,13.57
2023-03-26T17:35:16.621Z,13.53
2023-03-26T17:38:00.302Z,13.33
2023-03-26T17:41:08.808Z,13.90
2023-03-26T17:43:53.843Z,13.47
2023-03-26T17:46:41.233Z,12.83
2023-03-26T17:49:28.600Z,12.90
2023-03-26T17:52:11.240Z,11.77
2023-03-26T17:54:55.410Z,10.87
2023-03-26T17:57:44.040Z,10.40
2023-03-26T18:00:26.957Z,10.67
2023-03-26T18:03:11.166Z,9.70
2023-03-26T18:05:54.137Z,9.43
2023-03-26T18:09:02.708Z,9.40
2023-03-26T18:12:02.567Z,9.57
2023-03-26T18:14:59.509Z,8.43
2023-03-26T18:17:44.888Z,8.73
2023-03-26T18:20:40.822Z,8.83
2023-03-26T18:23:25.769Z,7.90
2023-03-26T18:26:17.078Z,7.60
2023-03-26T18:28:57.631Z,8.43
2023-03-26T18:31:37.591Z,7.23
2023-03-26T18:34:22.422Z,8.43
2023-03-26T18:37:26.554Z,7.97
2023-03-26T18:40:18.672Z,7.00
2023-03-26T18:42:58.628Z,10.00
2023-03-26T18:45:38.277Z,6.80
2023-03-26T18:48:21.617Z,7.43
2023-03-26T18:51:09.477Z,6.67
2023-03-26T18:53:54.946Z,7.27
2023-03-26T18:56:41.563Z,6.97
2023-03-26T18:59:33.438Z,7.43
2023-03-26T19:02:15.128Z,7.67
2023-03-26T19:04:55.724Z,8.43
2023-03-26T19:07:33.117Z,7.43
2023-03-26T19:10:14.170Z,7.30
2023-03-26T19:12:50.381Z,8.00
2023-03-26T19:15:26.612Z,8.13
2023-03-26T19:18:15.847Z,7.80
2023-03-26T19:20:54.115Z,7.33
2023-03-26T19:23:34.914Z,7.90
2023-03-26T19:26:15.773Z,7.57
2023-03-26T19:28:55.235Z,7.73
2023-03-26T19:31:36.622Z,7.87
2023-03-26T19:34:27.505Z,7.43
2023-03-26T19:37:05.648Z,7.20
2023-03-26T19:39:49.257Z,7.93
2023-03-26T19:42:43.642Z,8.00
2023-03-26T19:45:23.437Z,7.60
2023-03-26T19:48:13.924Z,7.23
2023-03-26T19:51:00.321Z,8.13
2023-03-26T19:53:39.982Z,10.10
2023-03-26T19:56:20.402Z,7.77
2023-03-26T19:59:02.602Z,9.70
2023-03-26T20:01:38.336Z,8.60
2023-03-26T20:04:17.308Z,8.13
2023-03-26T20:06:55.386Z,8.80
2023-03-26T20:09:30.828Z,9.87
2023-03-26T20:12:06.226Z,10.87
2023-03-26T20:14:46.899Z,8.23
2023-03-26T20:17:24.553Z,9.30
2023-03-26T20:20:00.594Z,8.40
2023-03-26T20:22:36.373Z,8.87
2023-03-26T20:25:21.906Z,9.10
2023-03-26T20:27:57.270Z,8.97
2023-03-26T20:30:37.875Z,8.97
2023-03-26T20:33:26.616Z,9.00
2023-03-26T20:36:02.347Z,9.37
2023-03-26T20:38:40.010Z,9.37
2023-03-26T20:41:19.976Z,8.23
2023-03-26T20:43:56.139Z,9.33
2023-03-26T20:46:35.100Z,9.93
2023-03-26T20:49:11.944Z,9.67
2023-03-26T20:51:48.210Z,10.40
2023-03-26T20:54:24.771Z,10.43
2023-03-26T20:57:00.348Z,9.90
2023-03-26T20:59:36.238Z,9.13
2023-03-26T21:02:16.190Z,9.63
2023-03-26T21:04:52.260Z,10.23
2023-03-26T21:07:28.199Z,9.00
2023-03-26T21:10:04.459Z,8.87
2023-03-26T21:12:45.377Z,9.63
2023-03-26T21:15:23.806Z,9.43
2023-03-26T21:18:02.780Z,9.57
2023-03-26T21:20:39.282Z,10.03
2023-03-26T21:23:20.875Z,9.50
2023-03-26T21:26:07.726Z,9.80
2023-03-26T21:28:53.512Z,9.07
2023-03-26T21:31:38.675Z,9.30
2023-03-26T21:34:18.750Z,8.77
2023-03-26T21:36:54.861Z,8.50
2023-03-26T21:39:31.640Z,8.30
2023-03-26T21:42:07.983Z,7.77
2023-03-26T21:44:45.343Z,7.40
2023-03-26T21:47:22.661Z,6.50
2023-03-26T21:50:00.445Z,7.17
2023-03-26T21:52:36.483Z,6.60
2023-03-26T21:55:15.497Z,6.33
2023-03-26T21:58:13.285Z,5.63
2023-03-26T22:01:01.639Z,5.40
2023-03-26T22:03:47.597Z,5.90
2023-03-26T22:06:32.655Z,5.70
2023-03-26T22:09:08.910Z,5.70
2023-03-26T22:11:44.990Z,5.77
2023-03-26T22:14:22.369Z,6.17
2023-03-26T22:16:57.900Z,5.43
2023-03-26T22:19:37.131Z,5.23
2023-03-26T22:22:16.598Z,5.50
2023-03-26T22:24:52.620Z,5.50
2023-03-26T22:27:28.955Z,5.00
2023-03-26T22:30:05.400Z,5.27
2023-03-26T22:32:41.414Z,4.90
2023-03-26T22:35:17.631Z,4.90
2023-03-26T22:38:00.930Z,4.90
2023-03-26T22:40:37.459Z,5.30
2023-03-26T22:43:13.408Z,5.30
2023-03-26T22:45:55.843Z,6.03
2023-03-26T22:48:32.072Z,5.67
2023-03-26T22:51:10.702Z,7.40
2023-03-26T22:53:51.552Z,5.50
2023-03-26T22:56:27.523Z,5.10
2023-03-26T22:59:03.475Z,4.97
2023-03-26T23:01:39.456Z,5.20
2023-03-26T23:04:30.561Z,5.53
2023-03-26T23:07:09.282Z,5.83
2023-03-26T23:09:48.483Z,5.57
2023-03-26T23:12:25.275Z,5.40
2023-03-26T23:15:02.506Z,5.70
2023-03-26T23:17:40.146Z,5.77
2023-03-26T23:20:17.170Z,5.70
2023-03-26T23:22:52.802Z,5.77
2023-03-26T23:25:31.987Z,5.70
2023-03-26T23:28:08.475Z,5.90
2023-03-26T23:30:44.171Z,5.83
2023-03-26T23:33:20.188Z,5.87
2023-03-26T23:35:59.034Z,6.43
2023-03-26T23:38:44.184Z,6.50
2023-03-26T23:41:24.648Z,7.50
2023-03-26T23:44:00.130Z,7.37
2023-03-26T23:46:37.520Z,7.37
2023-03-26T23:49:18.961Z,7.20
2023-03-26T23:51:56.107Z,7.30
2023-03-26T23:54:31.998Z,7.37
2023-03-26T23:57:14.138Z,7.53
2023-03-26T23:59:51.747Z,8.57
